Time;durP1;ratioP1;P1;durP2;ratioP2;P2;SDS_P1;SDS_P2;PMS_P1;PMS_P2;Temp;Humidity;BMP_temperature;BMP_pressure;BME280_temperature;BME280_humidity;BME280_pressure;Samples;Min_cycle;Max_cycle;Signal;HPM_P1;HPM_P2
2020/12/17 00:00:20;;;;;;;0.70;0.70;;;10.10;99.90;;;10.60;100.00;-20970.44;5016137;28;20839;-68
2020/12/17 00:02:48;;;;;;;0.70;0.60;;;10.20;99.90;;;10.61;100.00;-20970.72;5015264;28;20490;-68
2020/12/17 00:05:15;;;;;;;0.70;0.70;;;10.20;99.90;;;10.52;100.00;-20968.38;5012042;28;20454;-68
2020/12/17 00:07:42;;;;;;;0.60;0.50;;;10.10;99.90;;;10.61;100.00;-20970.72;5015205;28;20483;-68
2020/12/17 00:10:12;;;;;;;0.70;0.60;;;10.10;99.90;;;10.62;100.00;-20971.00;5016254;28;20498;-69
2020/12/17 00:12:41;;;;;;;0.70;0.60;;;10.10;99.90;;;10.76;100.00;-20974.75;5016161;28;20970;-69
2020/12/17 00:15:10;;;;;;;0.60;0.60;;;10.10;99.90;;;10.59;100.00;-20970.31;4997079;28;20513;-68
2020/12/17 00:17:42;;;;;;;0.60;0.60;;;10.10;99.90;;;10.62;100.00;-20971.00;5013728;28;20518;-69
2020/12/17 00:20:09;;;;;;;0.70;0.60;;;10.10;99.90;;;10.69;100.00;-20972.81;5015563;28;20435;-68
2020/12/17 00:22:39;;;;;;;0.60;0.60;;;10.10;99.90;;;10.67;100.00;-20972.38;5015632;28;20480;-69
2020/12/17 00:25:06;;;;;;;0.70;0.60;;;10.10;99.90;;;10.75;100.00;-20974.47;5014913;28;20450;-68
2020/12/17 00:27:34;;;;;;;0.70;0.60;;;10.20;99.90;;;10.72;100.00;-20973.63;5007041;28;20450;-69
2020/12/17 00:30:00;;;;;;;0.70;0.60;;;10.20;99.90;;;10.77;100.00;-20975.16;5012321;28;20444;-68
2020/12/17 00:32:28;;;;;;;0.70;0.70;;;10.20;99.90;;;10.61;100.00;-20970.88;5015724;28;20457;-69
2020/12/17 00:34:56;;;;;;;0.70;0.70;;;10.20;99.90;;;10.64;100.00;-20971.56;5015174;28;20463;-68
2020/12/17 00:37:28;;;;;;;0.70;0.60;;;10.20;99.90;;;10.62;100.00;-20971.00;5014893;28;20449;-68
2020/12/17 00:39:55;;;;;;;0.70;0.60;;;10.20;99.90;;;10.60;100.00;-20970.59;5015561;28;20454;-68
2020/12/17 00:42:30;;;;;;;0.70;0.70;;;10.20;99.90;;;10.56;100.00;-20969.47;5014191;28;20949;-68
2020/12/17 00:45:00;;;;;;;0.70;0.60;;;10.20;99.90;;;10.63;100.00;-20971.41;5004933;28;20451;-68
2020/12/17 00:47:30;;;;;;;0.60;0.60;;;10.20;99.90;;;10.60;100.00;-20970.44;5010914;28;20449;-68
2020/12/17 00:49:58;;;;;;;0.70;0.60;;;10.20;99.90;;;10.56;100.00;-20969.34;5015086;28;20467;-68
2020/12/17 00:52:25;;;;;;;0.70;0.63;;;10.20;99.90;;;10.69;100.00;-20972.94;5014627;28;20863;-69
2020/12/17 00:54:52;;;;;;;0.67;0.60;;;10.20;99.90;;;10.63;100.00;-20971.41;5015410;28;20458;-69
2020/12/17 00:57:26;;;;;;;0.70;0.60;;;10.20;99.90;;;10.76;100.00;-20974.75;5008899;28;20465;-69
2020/12/17 00:59:53;;;;;;;0.70;0.60;;;10.30;99.90;;;10.68;100.00;-20972.53;4995520;28;20539;-69
2020/12/17 01:02:21;;;;;;;0.70;0.63;;;10.30;99.90;;;10.66;100.00;-20971.97;5012405;28;20724;-69
2020/12/17 01:04:48;;;;;;;0.70;0.60;;;10.30;99.90;;;10.81;100.00;-20976.13;5029747;28;20549;-69
2020/12/17 01:07:17;;;;;;;0.90;0.90;;;10.30;99.90;;;10.86;100.00;-20977.50;5014262;28;20504;-68
2020/12/17 01:09:44;;;;;;;0.70;0.60;;;10.30;99.90;;;10.80;100.00;-20975.97;5014825;28;20440;-69
2020/12/17 01:12:11;;;;;;;1.23;0.93;;;10.30;99.90;;;10.87;100.00;-20977.78;5015029;28;20774;-68
2020/12/17 01:14:39;;;;;;;0.70;0.60;;;10.30;99.90;;;10.89;100.00;-20978.47;5014441;28;20453;-69
2020/12/17 01:17:07;;;;;;;0.70;0.60;;;10.30;99.90;;;10.88;100.00;-20978.06;5013309;28;20890;-68
2020/12/17 01:19:34;;;;;;;0.70;0.60;;;10.30;99.90;;;10.88;100.00;-20978.19;5014628;28;20474;-68
2020/12/17 01:22:03;;;;;;;0.70;0.60;;;10.40;99.90;;;11.00;100.00;-20981.25;5014322;28;20469;-68
2020/12/17 01:24:30;;;;;;;0.60;0.60;;;10.50;99.90;;;11.25;100.00;-20988.16;5012655;28;20504;-68
2020/12/17 01:26:57;;;;;;;0.70;0.67;;;10.60;99.90;;;11.25;100.00;-20988.00;5029744;28;20456;-68
2020/12/17 01:29:25;;;;;;;0.70;0.60;;;10.60;99.90;;;11.25;100.00;-20988.00;5014269;28;20447;-69
2020/12/17 01:31:57;;;;;;;0.63;0.60;;;10.70;99.90;;;11.37;100.00;-20991.31;5014771;28;20431;-69
2020/12/17 01:34:24;;;;;;;1.37;1.27;;;10.80;99.90;;;11.38;100.00;-20991.59;5014856;28;20519;-69
2020/12/17 01:36:52;;;;;;;0.70;0.60;;;10.70;99.90;;;11.53;100.00;-20995.75;5013329;28;20434;-69
2020/12/17 01:39:20;;;;;;;0.70;0.60;;;10.80;99.90;;;11.51;100.00;-20995.06;5029977;28;20453;-68
2020/12/17 01:41:48;;;;;;;0.60;0.60;;;10.90;99.90;;;11.47;100.00;-20993.97;5014329;28;20440;-69
2020/12/17 01:44:15;;;;;;;0.70;0.60;;;10.90;99.90;;;11.37;100.00;-20991.31;5029221;28;20441;-68
2020/12/17 01:46:42;;;;;;;0.70;0.60;;;10.80;99.90;;;11.26;100.00;-20988.28;5013770;28;20471;-68
2020/12/17 01:49:11;;;;;;;0.70;0.70;;;10.70;99.90;;;11.26;100.00;-20988.28;5013783;28;20468;-68
2020/12/17 01:51:38;;;;;;;0.70;0.60;;;10.70;99.90;;;11.20;100.00;-20986.63;5028955;28;20804;-70
2020/12/17 01:54:05;;;;;;;0.70;0.70;;;10.60;99.90;;;11.41;100.00;-20992.44;5014171;28;20456;-68
2020/12/17 01:56:35;;;;;;;0.70;0.60;;;10.70;99.90;;;11.37;100.00;-20991.47;5014053;28;20453;-68
2020/12/17 01:59:22;;;;;;;0.70;0.60;;;10.70;99.90;;;11.19;100.00;-20986.50;5013726;28;20464;-68
2020/12/17 02:01:52;;;;;;;0.70;0.63;;;10.60;99.90;;;11.18;100.00;-20986.06;5013843;28;20436;-68
2020/12/17 02:04:22;;;;;;;0.80;0.77;;;10.60;99.90;;;11.13;100.00;-20984.97;5013577;28;20960;-68
2020/12/17 02:06:49;;;;;;;0.63;0.60;;;10.60;99.90;;;11.30;100.00;-20989.41;5013357;28;20457;-68
2020/12/17 02:09:18;;;;;;;2.70;1.17;;;10.70;99.90;;;11.33;100.00;-20990.34;5013228;28;20475;-68
2020/12/17 02:11:52;;;;;;;0.70;0.60;;;10.80;99.90;;;11.25;100.00;-20988.00;5013707;28;20449;-68
2020/12/17 02:14:21;;;;;;;0.70;0.60;;;10.70;99.90;;;11.34;100.00;-20990.50;5013383;28;20845;-68
2020/12/17 02:16:49;;;;;;;0.70;0.60;;;10.70;99.90;;;11.38;100.00;-20991.59;5013610;28;20448;-68
2020/12/17 02:19:17;;;;;;;0.70;0.60;;;10.70;99.90;;;11.37;100.00;-20991.31;5012734;28;20478;-70
2020/12/17 02:21:45;;;;;;;0.70;0.60;;;10.70;99.90;;;11.32;100.00;-20989.94;5013246;28;20502;-68
2020/12/17 02:24:13;;;;;;;0.70;0.70;;;10.70;99.90;;;11.32;100.00;-20989.94;5013986;28;20941;-69
2020/12/17 02:26:41;;;;;;;0.70;0.63;;;10.70;99.90;;;11.16;100.00;-20985.53;5013602;28;20458;-68
2020/12/17 02:29:08;;;;;;;0.70;0.60;;;10.60;99.90;;;11.32;100.00;-20989.94;5013751;28;20994;-68
2020/12/17 02:31:36;;;;;;;0.70;0.60;;;10.70;99.90;;;11.20;100.00;-20986.78;5013594;28;20449;-68
2020/12/17 02:34:03;;;;;;;0.70;0.70;;;10.60;99.90;;;11.20;100.00;-20986.63;5008668;28;20469;-68
2020/12/17 02:36:30;;;;;;;0.70;0.70;;;10.60;99.90;;;11.04;100.00;-20982.34;5009634;28;20449;-69
2020/12/17 02:38:58;;;;;;;0.70;0.70;;;10.50;99.90;;;11.08;100.00;-20983.59;5001662;28;20557;-68
2020/12/17 02:41:26;;;;;;;0.70;0.60;;;10.50;99.90;;;10.96;100.00;-20980.28;5010862;28;20953;-68
2020/12/17 02:43:54;;;;;;;0.70;0.67;;;10.50;99.90;;;10.94;100.00;-20979.72;5013324;28;20586;-68
2020/12/17 02:46:21;;;;;;;0.70;0.60;;;10.50;99.90;;;11.04;100.00;-20982.47;5013174;28;20533;-68
2020/12/17 02:48:50;;;;;;;0.70;0.70;;;10.40;99.90;;;11.05;100.00;-20982.75;5013204;28;20844;-68
2020/12/17 02:51:17;;;;;;;0.63;0.60;;;10.50;99.90;;;11.23;100.00;-20987.47;5013070;28;20800;-68
2020/12/17 02:53:44;;;;;;;0.70;0.60;;;10.50;99.90;;;10.99;100.00;-20980.97;5013323;28;20864;-68
2020/12/17 02:56:13;;;;;;;0.70;0.70;;;10.50;99.90;;;10.98;100.00;-20980.69;5013249;28;20990;-69
2020/12/17 02:58:40;;;;;;;0.70;0.60;;;10.40;99.90;;;11.00;100.00;-20981.38;5011518;28;20564;-68
2020/12/17 03:01:08;;;;;;;0.70;0.70;;;10.40;99.90;;;10.84;100.00;-20976.94;5013431;28;20515;-68
2020/12/17 03:03:36;;;;;;;0.70;0.70;;;10.30;99.90;;;11.03;100.00;-20982.22;5010932;28;20466;-68
2020/12/17 03:06:03;;;;;;;0.70;0.70;;;10.30;99.90;;;11.03;100.00;-20982.22;4995974;28;20891;-68
2020/12/17 03:08:30;;;;;;;0.70;0.60;;;10.40;99.90;;;11.10;100.00;-20984.00;5013042;28;20441;-68
2020/12/17 03:10:57;;;;;;;0.60;0.60;;;10.40;99.90;;;11.03;100.00;-20982.06;5013301;28;20526;-69
2020/12/17 03:13:24;;;;;;;0.60;0.50;;;10.40;99.90;;;11.03;100.00;-20982.06;5013053;28;20815;-68
2020/12/17 03:15:51;;;;;;;0.70;0.60;;;10.40;99.90;;;11.02;100.00;-20981.94;5011623;28;20466;-68
2020/12/17 03:18:19;;;;;;;0.60;0.60;;;10.40;99.90;;;10.99;100.00;-20980.97;5012185;28;20605;-69
2020/12/17 03:20:46;;;;;;;0.70;0.60;;;10.40;99.90;;;10.93;100.00;-20979.31;5013123;28;20524;-68
2020/12/17 03:23:14;;;;;;;1.03;1.03;;;10.30;99.90;;;11.07;100.00;-20983.19;5016468;28;20547;-68
2020/12/17 03:25:41;;;;;;;0.70;0.60;;;10.40;99.90;;;11.02;100.00;-20981.78;5016808;28;20442;-69
2020/12/17 03:28:08;;;;;;;0.70;0.60;;;10.40;99.90;;;10.88;100.00;-20978.19;5016506;28;20483;-69
2020/12/17 03:30:35;;;;;;;0.70;0.60;;;10.30;99.90;;;10.93;100.00;-20979.44;5016965;28;20845;-68
2020/12/17 03:33:02;;;;;;;0.60;0.60;;;10.30;99.90;;;10.92;100.00;-20979.16;5016340;28;20534;-70
2020/12/17 03:35:30;;;;;;;0.60;0.57;;;10.40;99.90;;;10.76;100.00;-20974.88;5015788;28;20935;-68
2020/12/17 03:38:00;;;;;;;0.70;0.60;;;10.30;99.90;;;10.82;100.00;-20976.41;5015598;28;20449;-68
2020/12/17 03:40:28;;;;;;;0.70;0.60;;;10.30;99.90;;;10.81;100.00;-20976.13;5016856;28;20903;-69
2020/12/17 03:42:55;;;;;;;0.70;0.60;;;10.30;99.90;;;10.83;100.00;-20976.69;5016389;28;20459;-69
2020/12/17 03:45:22;;;;;;;0.70;0.60;;;10.30;99.90;;;10.84;100.00;-20976.94;5016221;28;20452;-69
2020/12/17 03:47:49;;;;;;;0.60;0.50;;;10.30;99.90;;;10.72;100.00;-20973.63;5016119;28;20531;-68
2020/12/17 03:50:17;;;;;;;0.70;0.60;;;10.20;99.90;;;10.72;100.00;-20973.63;5016254;28;20488;-69
2020/12/17 03:52:44;;;;;;;0.70;0.60;;;10.20;99.90;;;10.75;100.00;-20974.47;5015340;28;20450;-68
2020/12/17 03:55:11;;;;;;;0.70;0.60;;;10.20;99.90;;;10.79;100.00;-20975.56;5016369;28;20434;-68
2020/12/17 03:57:38;;;;;;;0.70;0.60;;;10.20;99.90;;;10.68;100.00;-20972.53;5015943;28;20510;-68
2020/12/17 04:00:06;;;;;;;0.70;0.60;;;10.10;99.90;;;10.71;100.00;-20973.50;5031331;28;20583;-69
2020/12/17 04:02:33;;;;;;;0.67;0.60;;;10.10;99.90;;;10.68;100.00;-20972.53;5016237;28;20483;-69
2020/12/17 04:05:09;;;;;;;0.63;0.60;;;10.10;99.90;;;10.72;100.00;-20973.63;5016012;28;20564;-68
2020/12/17 04:08:33;;;;;;;0.87;0.87;;;10.20;99.90;;;10.69;100.00;-20972.94;5015163;28;20993;-69
2020/12/17 04:11:07;;;;;;;0.63;0.60;;;10.10;99.90;;;10.68;100.00;-20972.66;5004481;28;20480;-68
2020/12/17 04:13:34;;;;;;;0.70;0.60;;;10.10;99.90;;;10.63;100.00;-20971.41;5014444;28;20529;-68
2020/12/17 04:16:01;;;;;;;0.70;0.60;;;10.10;99.90;;;10.56;100.00;-20969.47;5012140;28;20576;-69
2020/12/17 04:18:28;;;;;;;0.63;0.60;;;10.10;99.90;;;10.63;100.00;-20971.28;5013269;28;20572;-68
2020/12/17 04:20:55;;;;;;;0.70;0.60;;;10.10;99.90;;;10.69;100.00;-20972.81;5015097;28;20865;-68
2020/12/17 04:23:22;;;;;;;0.60;0.60;;;10.10;99.90;;;10.56;100.00;-20969.34;5015058;28;20484;-68
2020/12/17 04:25:50;;;;;;;0.70;0.60;;;10.00;99.90;;;10.73;100.00;-20973.91;5015931;28;20516;-68
2020/12/17 04:28:17;;;;;;;0.67;0.60;;;10.00;99.90;;;10.64;100.00;-20971.69;5015423;28;20438;-68
2020/12/17 04:30:44;;;;;;;0.70;0.60;;;10.00;99.90;;;10.58;100.00;-20970.03;5015620;28;20457;-69
2020/12/17 04:33:11;;;;;;;0.70;0.60;;;10.00;99.90;;;10.71;100.00;-20973.34;5013397;28;20489;-70
2020/12/17 04:35:38;;;;;;;0.80;0.70;;;10.10;99.90;;;10.57;100.00;-20969.63;4999658;28;20542;-69
2020/12/17 04:38:05;;;;;;;0.80;0.80;;;10.10;99.90;;;10.77;100.00;-20975.03;5010712;28;20547;-69
2020/12/17 04:40:32;;;;;;;0.70;0.60;;;10.10;99.90;;;10.65;100.00;-20971.84;5003054;28;20505;-69
2020/12/17 04:42:59;;;;;;;0.70;0.60;;;10.10;99.90;;;10.72;100.00;-20973.63;5001088;28;20491;-68
2020/12/17 04:45:26;;;;;;;0.70;0.70;;;10.10;99.90;;;10.70;100.00;-20973.22;5002077;28;20439;-68
2020/12/17 04:47:57;;;;;;;0.70;0.70;;;10.10;99.90;;;10.83;100.00;-20976.69;5014045;28;20476;-69
2020/12/17 04:50:26;;;;;;;0.70;0.60;;;10.20;99.90;;;10.90;100.00;-20978.63;5015141;28;20847;-70
2020/12/17 04:52:54;;;;;;;0.70;0.60;;;10.20;99.90;;;10.90;100.00;-20978.63;5011581;28;20454;-70
2020/12/17 04:55:27;;;;;;;0.60;0.60;;;10.30;99.90;;;10.96;100.00;-20980.28;5012396;28;20462;-69
2020/12/17 04:57:58;;;;;;;0.70;0.60;;;10.30;99.90;;;10.93;100.00;-20979.44;5015463;28;20453;-69
2020/12/17 05:00:27;;;;;;;0.63;0.60;;;10.30;99.90;;;10.94;100.00;-20979.59;5004090;28;20561;-68
2020/12/17 05:02:56;;;;;;;0.70;0.60;;;10.30;99.90;;;11.00;100.00;-20981.38;4995503;28;20433;-69
2020/12/17 05:05:24;;;;;;;0.67;0.60;;;10.40;99.90;;;10.95;100.00;-20980.00;4995370;28;20488;-68
2020/12/17 05:07:51;;;;;;;0.70;0.60;;;10.40;99.90;;;11.09;100.00;-20983.88;4995130;28;20805;-68
2020/12/17 05:10:21;;;;;;;0.60;0.60;;;10.40;99.90;;;11.08;100.00;-20983.44;4995148;28;20499;-69
2020/12/17 05:12:47;;;;;;;0.70;0.60;;;10.40;99.90;;;11.12;100.00;-20984.69;5007831;28;20462;-69
2020/12/17 05:15:15;;;;;;;0.70;0.60;;;10.50;99.90;;;11.22;100.00;-20987.19;5014962;28;20471;-68
2020/12/17 05:17:48;;;;;;;0.70;0.60;;;10.50;99.90;;;11.21;100.00;-20987.03;5015062;28;20470;-68
2020/12/17 05:20:16;;;;;;;0.70;0.60;;;10.50;99.90;;;11.18;100.00;-20986.06;5014966;28;20485;-69
2020/12/17 05:22:44;;;;;;;0.70;0.60;;;10.60;99.90;;;11.40;100.00;-20992.16;5014805;28;20436;-68
2020/12/17 05:25:13;;;;;;;0.70;0.70;;;10.50;99.90;;;11.31;100.00;-20989.69;5014444;28;20447;-68
2020/12/17 05:27:41;;;;;;;0.70;0.60;;;10.50;99.90;;;11.30;100.00;-20989.53;5014673;28;20489;-68
2020/12/17 05:30:08;;;;;;;0.70;0.60;;;10.50;99.90;;;11.13;100.00;-20984.84;5011536;28;20539;-68
2020/12/17 05:32:35;;;;;;;0.70;0.60;;;10.50;99.90;;;11.32;100.00;-20990.09;4995010;28;20427;-68
2020/12/17 05:35:04;;;;;;;0.63;0.53;;;10.60;99.90;;;11.34;100.00;-20990.63;5004395;28;20537;-68
2020/12/17 05:37:32;;;;;;;0.70;0.60;;;10.60;99.90;;;11.27;100.00;-20988.56;5014296;28;20440;-68
2020/12/17 05:40:01;;;;;;;0.70;0.60;;;10.60;99.90;;;11.22;100.00;-20987.31;5012833;28;20469;-68
2020/12/17 05:42:28;;;;;;;0.70;0.60;;;10.60;99.90;;;11.31;100.00;-20989.81;5014685;28;20466;-70
2020/12/17 05:44:55;;;;;;;0.70;0.60;;;10.70;99.90;;;11.41;100.00;-20992.28;5013811;28;20452;-69
2020/12/17 05:47:22;;;;;;;2.80;1.10;;;10.80;99.90;;;11.54;100.00;-20996.03;5003420;28;20843;-68
2020/12/17 05:49:49;;;;;;;0.70;0.70;;;11.00;99.90;;;11.57;100.00;-20996.72;4994527;28;20445;-68
2020/12/17 05:52:22;;;;;;;0.70;0.60;;;11.10;99.90;;;11.71;100.00;-21000.59;4994316;28;20529;-68
2020/12/17 05:55:01;;;;;;;0.70;0.60;;;11.10;99.90;;;11.74;100.00;-21001.41;5001965;28;20439;-68
2020/12/17 05:57:28;;;;;;;1.30;1.20;;;11.10;99.90;;;11.81;100.00;-21003.22;5014173;28;20425;-68
2020/12/17 05:59:57;;;;;;;0.70;0.70;;;11.10;99.90;;;11.71;100.00;-21000.59;5013965;28;20802;-68
2020/12/17 06:02:27;;;;;;;0.67;0.60;;;11.10;99.90;;;11.74;100.00;-21001.28;5014215;28;20481;-68
2020/12/17 06:05:07;;;;;;;0.70;0.60;;;11.10;99.90;;;11.75;100.00;-21001.69;5013925;28;20481;-68
2020/12/17 06:07:47;;;;;;;0.67;0.60;;;11.10;99.90;;;11.75;100.00;-21001.56;5013541;28;20446;-68
2020/12/17 06:10:22;;;;;;;0.70;0.60;;;11.10;99.90;;;11.86;100.00;-21004.59;5011914;28;20449;-68
2020/12/17 06:12:52;;;;;;;0.70;0.60;;;11.20;99.90;;;11.84;100.00;-21004.03;5014107;28;20431;-68
2020/12/17 06:15:21;;;;;;;0.70;0.60;;;11.30;99.90;;;11.91;100.00;-21005.97;5013826;28;20434;-68
2020/12/17 06:17:52;;;;;;;0.70;0.70;;;11.20;99.90;;;11.92;100.00;-21006.25;5013785;28;20796;-68
2020/12/17 06:20:26;;;;;;;0.70;0.70;;;11.30;99.90;;;11.87;100.00;-21004.88;5014036;28;20484;-68
2020/12/17 06:22:56;;;;;;;0.70;0.60;;;11.30;99.90;;;11.84;100.00;-21004.03;5011283;28;20466;-68
2020/12/17 06:25:25;;;;;;;0.70;0.70;;;11.30;99.90;;;11.87;100.00;-21004.88;5006063;28;20434;-68
2020/12/17 06:27:53;;;;;;;0.70;0.70;;;11.20;99.90;;;11.84;100.00;-21004.03;5012864;28;20485;-68
2020/12/17 06:30:23;;;;;;;0.70;0.60;;;11.20;99.90;;;11.65;100.00;-20998.78;5004088;28;20483;-68
2020/12/17 06:32:53;;;;;;;0.70;0.60;;;11.10;99.90;;;11.51;100.00;-20995.19;5013515;28;20486;-68
2020/12/17 06:35:49;;;;;;;1.00;1.00;;;11.00;99.90;;;11.50;100.00;-20994.91;5013841;28;20429;-68
2020/12/17 06:38:24;;;;;;;0.70;0.60;;;10.90;99.90;;;11.39;100.00;-20991.88;5006075;28;20465;-67
2020/12/17 06:40:51;;;;;;;0.70;0.60;;;10.90;99.90;;;11.34;100.00;-20990.50;5008479;28;20422;-68
2020/12/17 06:43:36;;;;;;;0.80;0.80;;;10.70;99.90;;;11.15;100.00;-20985.38;5027911;28;20781;-67
2020/12/17 06:46:04;;;;;;;0.70;0.60;;;10.60;99.90;;;11.03;100.00;-20982.06;5016708;28;20512;-66
2020/12/17 06:48:34;;;;;;;0.70;0.60;;;10.60;99.90;;;11.11;100.00;-20984.28;5010201;28;20549;-66
2020/12/17 06:51:21;;;;;;;0.80;0.80;;;10.60;99.90;;;11.03;100.00;-20982.22;5013539;28;20480;-66
2020/12/17 06:53:49;;;;;;;0.70;0.60;;;10.50;99.90;;;10.79;100.00;-20975.72;5013195;28;20563;-66
2020/12/17 06:56:17;;;;;;;1.10;0.87;;;10.50;99.90;;;10.78;100.00;-20975.44;5016614;28;20543;-66
2020/12/17 06:58:44;;;;;;;0.70;0.70;;;10.40;99.90;;;10.77;100.00;-20975.03;5018524;28;20493;-67
2020/12/17 07:01:23;;;;;;;0.70;0.60;;;10.30;99.90;;;10.60;100.00;-20970.44;5016322;28;20465;-66
2020/12/17 07:03:51;;;;;;;0.60;0.60;;;10.30;99.90;;;10.53;100.00;-20968.66;4997668;28;20454;-66
2020/12/17 07:06:20;;;;;;;0.70;0.60;;;10.20;99.90;;;10.47;100.00;-20967.00;4998348;28;20542;-66
2020/12/17 07:08:50;;;;;;;0.60;0.60;;;10.20;99.90;;;10.41;100.00;-20833.25;4997619;28;20439;-67
2020/12/17 07:11:41;;;;;;;0.80;0.80;;;10.20;99.90;;;10.41;100.00;-20738.13;4997705;28;20786;-67
2020/12/17 07:14:33;;;;;;;0.70;0.60;;;10.10;99.90;;;10.31;100.00;-20700.34;4997752;28;20430;-66
2020/12/17 07:17:03;;;;;;;0.70;0.60;;;10.10;99.90;;;10.24;100.00;-20773.53;4998132;28;20494;-67
2020/12/17 07:19:39;;;;;;;0.70;0.60;;;10.00;99.90;;;10.40;100.00;-20848.16;4997662;28;20487;-67
2020/12/17 07:22:08;;;;;;;0.70;0.60;;;10.10;99.90;;;10.43;100.00;-20965.75;4998306;28;20403;-67
2020/12/17 07:24:38;;;;;;;0.67;0.60;;;10.10;99.90;;;10.35;100.00;-20963.69;5013668;28;20428;-66
2020/12/17 07:27:11;;;;;;;1.13;1.07;;;10.10;99.90;;;10.34;100.00;-20963.41;5017068;28;20416;-67
2020/12/17 07:29:45;;;;;;;0.80;0.70;;;10.10;99.90;;;10.37;100.00;-20964.38;5015826;28;20434;-67
2020/12/17 07:32:27;;;;;;;0.70;0.60;;;10.10;99.90;;;10.32;100.00;-20962.97;5016943;28;20410;-67
2020/12/17 07:34:56;;;;;;;0.60;0.60;;;10.10;99.90;;;10.30;100.00;-20962.44;5016760;28;20450;-66
2020/12/17 07:37:42;;;;;;;0.70;0.60;;;10.10;99.90;;;10.25;100.00;-20961.03;5016922;28;20507;-67
2020/12/17 07:40:34;;;;;;;0.60;0.50;;;10.00;99.90;;;10.30;100.00;-20962.28;5020703;28;20461;-67
2020/12/17 07:43:08;;;;;;;0.63;0.57;;;10.00;99.90;;;10.21;100.00;-20959.78;5017006;28;20914;-67
2020/12/17 07:45:47;;;;;;;0.63;0.60;;;10.00;99.90;;;10.31;100.00;-20962.72;5016900;28;20433;-66
2020/12/17 07:48:46;;;;;;;0.60;0.60;;;10.00;99.90;;;10.30;100.00;-20962.28;5016478;28;20556;-67
2020/12/17 07:51:34;;;;;;;0.70;0.60;;;10.00;99.90;;;10.28;100.00;-20961.75;4975413;28;20437;-66
2020/12/17 07:54:05;;;;;;;0.70;0.60;;;10.10;99.90;;;10.31;100.00;-20962.72;5013160;28;20446;-66
2020/12/17 07:56:33;;;;;;;0.60;0.60;;;10.10;99.90;;;10.31;100.00;-20962.56;5016553;28;20784;-66
2020/12/17 07:59:04;;;;;;;0.60;0.60;;;10.10;99.90;;;10.38;100.00;-20964.50;5016492;28;20534;-66
2020/12/17 08:01:32;;;;;;;0.60;0.60;;;10.10;99.90;;;10.35;100.00;-20963.69;5016383;28;20475;-66
2020/12/17 08:03:59;;;;;;;0.70;0.70;;;10.10;99.90;;;10.24;100.00;-20960.63;5015541;28;20517;-66
2020/12/17 08:06:28;;;;;;;0.87;0.87;;;10.10;99.90;;;10.22;100.00;-20960.06;5015412;28;20451;-66
2020/12/17 08:08:57;;;;;;;0.63;0.53;;;10.10;99.90;;;10.21;100.00;-20959.78;5018536;28;20432;-67
2020/12/17 08:11:39;;;;;;;0.60;0.50;;;10.10;99.90;;;10.20;100.00;-20959.50;5021018;28;20789;-67
2020/12/17 08:14:08;;;;;;;0.70;0.60;;;10.10;99.90;;;10.25;100.00;-20960.91;5017834;28;20817;-67
2020/12/17 08:16:36;;;;;;;1.07;0.97;;;10.00;99.90;;;10.29;100.00;-20962.00;5016552;28;20438;-67
2020/12/17 08:19:04;;;;;;;0.60;0.60;;;10.00;99.90;;;10.13;100.00;-20957.84;5016021;28;20469;-68
2020/12/17 08:21:31;;;;;;;0.70;0.60;;;9.90;99.90;;;10.16;100.00;-20958.53;5015404;28;20442;-66
2020/12/17 08:23:58;;;;;;;0.70;0.70;;;9.90;99.90;;;10.24;100.00;-20960.63;5006243;28;20450;-67
2020/12/17 08:26:28;;;;;;;0.70;0.60;;;9.90;99.90;;;10.09;100.00;-20956.75;5016594;28;20429;-67
2020/12/17 08:28:57;;;;;;;0.70;0.60;;;9.90;99.90;;;10.13;100.00;-20957.84;5018177;28;20900;-67
2020/12/17 08:31:27;;;;;;;0.60;0.60;;;9.90;99.90;;;10.18;100.00;-20959.09;5015726;28;20464;-66
2020/12/17 08:33:57;;;;;;;0.60;0.60;;;9.90;99.90;;;10.25;100.00;-20960.91;5016015;28;20458;-66
2020/12/17 08:36:28;;;;;;;1.10;1.00;;;9.90;99.90;;;10.17;100.00;-20958.81;5017156;28;20436;-67
2020/12/17 08:38:58;;;;;;;0.60;0.60;;;9.90;99.90;;;10.15;100.00;-20958.28;5011538;28;20779;-68
2020/12/17 08:41:33;;;;;;;0.70;0.60;;;9.90;99.90;;;10.10;100.00;-20957.03;4998193;28;20938;-67
2020/12/17 08:44:05;;;;;;;0.70;0.67;;;9.90;99.90;;;10.05;100.00;-20955.50;4996080;28;20422;-68
2020/12/17 08:46:35;;;;;;;0.60;0.60;;;9.80;99.90;;;10.15;100.00;-20958.41;5013870;28;20524;-67
2020/12/17 08:49:07;;;;;;;0.70;0.60;;;9.80;99.90;;;10.19;100.00;-20959.25;5014193;28;20451;-67
2020/12/17 08:51:36;;;;;;;0.60;0.50;;;9.80;99.90;;;10.13;100.00;-20957.72;5015721;28;20518;-67
2020/12/17 08:54:05;;;;;;;0.70;0.67;;;9.90;99.90;;;10.16;100.00;-20958.53;5014936;28;20457;-67
2020/12/17 08:56:32;;;;;;;0.73;0.73;;;9.90;99.90;;;10.23;100.00;-20960.47;5015489;28;20429;-66
2020/12/17 08:59:03;;;;;;;0.70;0.60;;;9.90;99.90;;;10.21;100.00;-20959.78;5017112;28;20472;-67
2020/12/17 09:01:32;;;;;;;0.60;0.60;;;9.90;99.90;;;10.22;100.00;-20960.22;5016965;28;20410;-67
2020/12/17 09:04:05;;;;;;;0.70;0.60;;;9.90;99.90;;;10.26;100.00;-20961.31;5013802;28;20478;-67
2020/12/17 09:06:39;;;;;;;0.70;0.70;;;9.90;99.90;;;10.33;100.00;-20963.13;4996149;28;20978;-66
2020/12/17 09:09:36;;;;;;;0.70;0.60;;;10.00;99.90;;;10.34;100.00;-20963.41;4997628;28;20550;-67
2020/12/17 09:12:07;;;;;;;0.70;0.60;;;10.00;99.90;;;10.29;100.00;-20962.00;5010873;28;20423;-66
2020/12/17 09:14:38;;;;;;;0.70;0.60;;;10.00;99.90;;;10.33;100.00;-20963.25;4995842;28;20419;-66
2020/12/17 09:17:11;;;;;;;0.70;0.60;;;10.00;99.90;;;10.37;100.00;-20964.22;5013801;28;20439;-67
2020/12/17 09:19:39;;;;;;;0.70;0.70;;;10.00;99.90;;;10.44;100.00;-20966.03;5014602;28;20479;-67
2020/12/17 09:22:07;;;;;;;0.70;0.60;;;10.00;99.90;;;10.45;100.00;-20966.44;5013945;28;20454;-66
2020/12/17 09:24:36;;;;;;;0.70;0.70;;;10.10;99.90;;;10.62;100.00;-20971.16;5015528;28;20601;-66
2020/12/17 09:27:21;;;;;;;0.70;0.60;;;10.10;99.90;;;10.79;100.00;-20975.56;5015453;28;20472;-68
2020/12/17 09:30:11;;;;;;;0.60;0.60;;;10.20;99.90;;;10.90;100.00;-20978.63;5015830;28;20415;-65
2020/12/17 09:32:41;;;;;;;0.70;0.70;;;10.40;99.90;;;11.00;100.00;-20981.38;5015404;28;20423;-67
2020/12/17 09:35:12;;;;;;;0.70;0.60;;;10.50;99.90;;;11.15;100.00;-20985.25;5016405;28;20472;-67
2020/12/17 09:37:42;;;;;;;0.60;0.60;;;10.60;99.90;;;11.15;100.00;-20985.25;5014474;28;20922;-67
2020/12/17 09:40:11;;;;;;;0.60;0.60;;;10.60;99.90;;;11.33;100.00;-20990.22;5017647;28;20825;-67
2020/12/17 09:42:39;;;;;;;0.70;0.60;;;10.60;99.90;;;11.61;100.00;-20997.97;5014674;28;20433;-66
2020/12/17 09:45:16;;;;;;;0.70;0.60;;;10.70;99.90;;;11.57;100.00;-20996.72;5016611;28;20517;-67
2020/12/17 09:47:44;;;;;;;0.70;0.70;;;10.90;99.90;;;11.74;100.00;-21001.41;5018028;28;20438;-65
2020/12/17 09:50:15;;;;;;;0.70;0.60;;;11.00;99.90;;;11.90;100.00;-21005.56;5014807;28;20427;-67
2020/12/17 09:52:43;;;;;;;4.10;1.00;;;11.00;99.90;;;11.74;100.00;-21001.28;5014273;28;20410;-67
2020/12/17 09:55:13;;;;;;;0.70;0.67;;;11.00;99.90;;;11.43;100.00;-20993.00;5009768;28;20937;-67
2020/12/17 09:57:41;;;;;;;0.70;0.60;;;10.90;99.90;;;11.26;100.00;-20988.44;4994836;28;20937;-66
2020/12/17 10:00:14;;;;;;;0.70;0.60;;;10.90;99.90;;;11.32;100.00;-20989.94;4994560;28;20595;-67
2020/12/17 10:02:43;;;;;;;0.70;0.60;;;10.90;99.90;;;11.48;100.00;-20994.22;4994745;28;20453;-66
2020/12/17 10:05:11;;;;;;;0.70;0.60;;;11.00;99.90;;;11.55;100.00;-20996.16;4993195;28;20841;-66
2020/12/17 10:07:46;;;;;;;0.70;0.60;;;11.10;99.90;;;11.76;100.00;-21001.97;4995102;28;20854;-68
2020/12/17 10:10:15;;;;;;;0.70;0.70;;;11.20;99.90;;;12.18;100.00;-21013.16;4994261;28;20757;-67
2020/12/17 10:12:44;;;;;;;0.70;0.60;;;11.30;99.90;;;11.95;100.00;-21007.09;4994225;28;20478;-68
2020/12/17 10:15:13;;;;;;;0.70;0.70;;;11.30;99.90;;;12.11;100.00;-21011.22;4998816;28;21010;-66
2020/12/17 10:17:41;;;;;;;0.70;0.60;;;11.30;99.90;;;12.04;100.00;-21009.56;5013024;28;20448;-66
2020/12/17 10:20:11;;;;;;;0.70;0.60;;;11.40;99.90;;;11.98;100.00;-21007.91;5013786;28;20840;-66